Charleston, SC

9:12 PM EDT on May 29, 2015 (GMT -0400)
Charleston Executive | | Change Station
CLOSE
Current Station
Airport
Location: Charleston,
Elevation: 16 ft
Nearby Weather Stations

Elev 16 ft 32.70 °N, 80.01 °W | Updated 57 minutes ago

Partly Cloudy
Partly Cloudy
75 °F
Feels Like 75 °F
N
9
Wind Variable Wind from East

Today
High -- | Low -- °F
--% Chance of Precip.
Yesterday
High -- | Low -- °F
Precip. -- in
6:13 AM 8:20 PM
Waxing Gibbous, 87% visible
Pressure 30.17 in
Visibility 10.0 miles
Clouds Few 3000 ft
Dew Point 70 °F
Humidity 83%
Rainfall 0.00 in
Snow Depth Not available.
UV 0 out of 12
Pollen 5.80 out of 12
Air Quality Not available.
Flu Activity Local Activity
METAR KJZI 300015Z AUTO 08008KT 10SM FEW030 24/21 A3017 RMK A02 P000

More Conditions Fewer Conditions

Pressure 30.17 in
Visibility 10.0 miles
Clouds Few 3000 ft
Dew Point 70 °F
Humidity 83%
Rainfall 0.00 in
Snow Depth Not available.
UV 0 out of 12
Pollen 5.80 out of 12
Air Quality Not available.
Flu Activity Local Activity
METAR KJZI 300015Z AUTO 08008KT 10SM FEW030 24/21 A3017 RMK A02 P000

More Conditions Fewer Conditions

10-Day Weather Forecast

Almanac

Astronomy

May. 29, 2015 Rise Set
Actual Time
Civil Twilight
Nautical Twilight
Astronomical Twilight
Moon
Length of Visible Light
Length of Day
Tomorrow will be .
, % of the Moon is Illuminated

Today's Extremes

State Highs State Lows

Community

WunderPhotos

Upload Photos

1,825,413 photos uploaded!

WunderBlogs® & News

Nearby

Air Quality

  Air Quality AQ Index Pollutant
Not available.

Snow Depth

Station Depth Elevation

Earthquake Activity

City Distance Mag. Time & Date
Minimum magnitude displayed is 2.5.

Coastal Water Temperatures

Place Temperature

Stations

Nearby Weather Stations

Station Location Temp. Windchill Dew Point Humidity Wind Precip. Elev Updated Type